ADDS METAR Data INFO
IDs: Format: Raw Decoded Include TAF

Data at: 0127 UTC 20 Feb 2018

KBGD 200051Z AUTO 06008KT 10SM BKN100 12/M01 A2961 RMK AO2 SLP009 T01171006
KBGD 192351Z AUTO 05008KT 10SM BKN100 13/M01 A2962 RMK AO2 SLP008 60000 T01331006 10144 20078 56012
KBGD 192251Z AUTO 06011KT 10SM BKN110 14/00 A2962 RMK AO2 SLP008 T01390000
KBGD 192151Z AUTO 06013KT 10SM FEW065 SCT100 BKN120 13/00 A2962 RMK AO2 RAB26E38 SLP011 P0000 T01330000
KBGD 192051Z AUTO 06006KT 10SM FEW049 SCT070 SCT080 13/M01 A2965 RMK AO2 SLP019 T01281006 58033
KBGD 191951Z AUTO 08007KT 10SM CLR 11/M01 A2969 RMK AO2 SLP033 T01061006
KBGD 191851Z AUTO 06007KT 10SM CLR 09/M01 A2973 RMK AO2 SLP046 T00941011
KBGD 191751Z AUTO 03010KT 10SM CLR 08/M02 A2976 RMK AO2 SLP059 T00781017 10133 20044 50012
KBGD 191651Z AUTO 05009KT 10SM CLR 06/M02 A2977 RMK AO2 SLP065 T00561017
KBGD 191551Z AUTO 02009KT 10SM CLR 05/M02 A2976 RMK AO2 SLP062 T00501017
KBGD 191451Z AUTO 04006KT 10SM CLR 11/06 A2972 RMK AO2 SLP041 T01110056 53020
KBGD 191351Z AUTO 20008KT 10SM CLR 12/06 A2967 RMK AO2 SLP022 T01170061
KBGD 191251Z AUTO 19012KT 10SM CLR 13/06 A2967 RMK AO2 SLP019 T01280056
KBGD 191151Z AUTO 19009KT 10SM CLR 13/05 A2966 RMK AO2 SLP013 T01280050 10183 20128 51007
KBGD 191051Z AUTO 19012KT 10SM CLR 14/06 A2965 RMK AO2 SLP008 T01390056
KBGD 190951Z AUTO 18009KT 10SM CLR 13/05 A2964 RMK AO2 SLP005 T01330050
KBGD 190851Z AUTO 21012G18KT 10SM CLR 16/04 A2963 RMK AO2 SLP001 T01560044 58003
KBGD 190751Z AUTO 23015G21KT 10SM CLR 16/05 A2964 RMK AO2 SLP004 T01610050
KBGD 190651Z AUTO 23015G29KT 10SM CLR 18/04 A2964 RMK AO2 PK WND 23031/0636 SLP005 T01780044
KBGD 190551Z AUTO 23012G22KT 10SM CLR 17/04 A2964 RMK AO2 PK WND 22026/0530 SLP008 T01720044 10222 20167 402390056 58002
KBGD 190451Z AUTO 22012KT 10SM CLR 17/04 A2965 RMK AO2 SLP015 T01720044
KBGD 190351Z AUTO 20015G21KT 10SM CLR 18/04 A2965 RMK AO2 SLP019 T01830044
KBGD 190251Z AUTO 19010G18KT 10SM CLR 18/05 A2965 RMK AO2 PK WND 21026/0152 SLP022 T01830050 53005
KBGD 190151Z AUTO 21014G24KT 10SM CLR 20/05 A2964 RMK AO2 PK WND 20026/0103 SLP017 T02000050
KBGD 190051Z AUTO 21011G23KT 10SM CLR 21/04 A2964 RMK AO2 PK WND 22033/0002 SLP016 T02060039
KBGD 182351Z AUTO 21020G36KT 10SM CLR 22/02 A2963 RMK AO2 PK WND 22038/2259 SLP011 T02220022 10239 20178 56013
KBGD 182251Z AUTO 22016G33KT 10SM CLR 23/01 A2963 RMK AO2 PK WND 20042/2226 SLP010 T02330011
KBGD 182151Z AUTO 21020G34KT 10SM CLR 24/01 A2964 RMK AO2 PK WND 22036/2055 SLP012 T02390011
KBGD 182051Z AUTO 22022G33KT 10SM CLR 23/01 A2967 RMK AO2 PK WND 23035/2003 SLP025 T02280011 56045
KBGD 181951Z AUTO 21022G37KT 10SM CLR 22/M01 A2971 RMK AO2 PK WND 22037/1942 SLP037 T02221011
KBGD 181851Z AUTO 24023G32KT 10SM CLR 21/M01 A2976 RMK AO2 PK WND 23032/1850 SLP056 T02061006
KBGD 181751Z AUTO 21017G30KT 10SM CLR 18/02 A2982 RMK AO2 PK WND 21031/1741 SLP081 T01780017 10178 20056 58033
KBGD 181651Z AUTO 20023G32KT 10SM CLR 14/02 A2984 RMK AO2 PK WND 20032/1650 SLP093 T01390022
KBGD 181551Z AUTO 20021G28KT 10SM CLR 09/01 A2990 RMK AO2 PK WND 19028/1542 SLP118 T00940006
KBGD 181451Z AUTO 19014G22KT 10SM CLR 06/M02 A2992 RMK AO2 SLP126 T00611017 58012
KBGD 181351Z AUTO 21011G22KT 10SM CLR 06/M02 A2994 RMK AO2 SLP134 T00561022